Skip Navigation Links Skip Navigation Links

Current Weather

Al Dawasser Apt, Wadi, Saudi Arabia

For information only: do not use for flight planning or navigation.
Latest weather
Observation time Tuesday, October 19, 2021 11:00 AM +03
Local time Tuesday, October 19, 2021 11:15 AM +03
Flight conditions Visual Meteorological Conditions
Winds
Wind direction East (90°)
Wind speed 9 mph
Visibility 6.2 mi.
Sky condition
Ceiling unlimited
Sky clear
Temperature 90°F
Dewpoint 61°F
Altimeter 30.06 in.Hg
Derived measurements
Relative humidity 38%
Heat index 90°F
Density altitude 4074 ft.
Remarks
Ceiling and visibility OK.
No significant changes expected in the next two hours.
METAR OEWD 190800Z 09008KT CAVOK 32/16 Q1018 NOSIG

Settings

Location code

InnerDrive.Weather 4.0.6770.0 Release CLR 4.0.30319.42000
Copyright ©2018 Inner Drive Technology. All rights reserved. Portions Copyright ©1986-2018 David Braverman.

Find weather

Site navigation


Skip Navigation Links

Place info

Page info

PayPal - The safer, easier way to pay online!

Return home.

Copyright ©2021 Inner Drive Technology. Purveyors of fine, hand-crafted computer software. Page printed 2021-10-19T08:15:11 UTC.